^^
Station Historical Data
Daily Summary for September 1, 2017 Units:  Both    English   Metric
« Previous Day
Next Day »
Daily Weekly Monthly Yearly Custom
  High: Low: Average:
Temperature: TemperatureF °F /  -17.8 °C 51.4 °F /  10.8 °C 67.6 °F /  19.8 °C
Dew Point: DewpointF °F /  -17.8 °C 17.2 °F /  -8.2 °C 22.7 °F /  -5.2 °C
Humidity: Humidity% 10% 19%
Wind Speed: WindSpeedMPHmph /  0km/h - 2.1mph /  3.4km/h
Wind Gust: WindSpeedGustMPHmph /  0km/h - -
Wind- - SSE
Pressure: PressureIn in /  0 hPa 30.14 in /  1020.5 hPa -
Precipitation: 0.00 in /  0 mm    
Historical Graphs
 
 
Tabular Data for September 1, 2017
Time Temperature Dew Point Pressure Wind Wind Speed Wind Gust Humidity Rainfall Rate (Hourly) solar Conditions
TemperatureF °F /  -17.8 °C DewpointF °F /  -17.8 °C PressureInin /  0hPa Calm     Humidity% HourlyPrecipInin /  0mm SolarRadiationWatts/m^2 W/m2 Conditions
00:04 58.5 °F /  14.7 °C 25.5 °F /  -3.6 °C 30.27in /  1024.9hPa NNE 0.9mph /  1.4km/h 3.0mph /  4.8km/h 28% 0.00in /  0mm 0.0 W/m2
00:11 58.6 °F /  14.8 °C 25.7 °F /  -3.5 °C 30.27in /  1024.9hPa Calm   2.0mph /  3.2km/h 28% 0.00in /  0mm 0.0 W/m2
00:17 58.8 °F /  14.9 °C 25.7 °F /  -3.5 °C 30.27in /  1024.9hPa ENE 2.0mph /  3.2km/h 5.0mph /  8km/h 28% 0.00in /  0mm 0.0 W/m2
00:23 58.8 °F /  14.9 °C 25.0 °F /  -3.9 °C 30.27in /  1024.9hPa SSE 0.9mph /  1.4km/h 4.0mph /  6.4km/h 27% 0.00in /  0mm 0.0 W/m2
00:29 59.0 °F /  15 °C 25.0 °F /  -3.9 °C 30.27in /  1024.9hPa ENE 2.9mph /  4.7km/h 4.0mph /  6.4km/h 27% 0.00in /  0mm 0.0 W/m2
00:35 59.2 °F /  15.1 °C 24.3 °F /  -4.3 °C 30.27in /  1024.9hPa ESE 0.9mph /  1.4km/h 3.0mph /  4.8km/h 26% 0.00in /  0mm 0.0 W/m2
00:41 59.2 °F /  15.1 °C 25.2 °F /  -3.8 °C 30.27in /  1024.9hPa Calm   1.0mph /  1.6km/h 27% 0.00in /  0mm 0.0 W/m2
00:47 58.8 °F /  14.9 °C 25.0 °F /  -3.9 °C 30.27in /  1024.9hPa NE 0.9mph /  1.4km/h 2.0mph /  3.2km/h 27% 0.00in /  0mm 0.0 W/m2
00:53 58.5 °F /  14.7 °C 24.6 °F /  -4.1 °C 30.26in /  1024.6hPa Calm   1.0mph /  1.6km/h 27% 0.00in /  0mm 0.0 W/m2
00:59 58.3 °F /  14.6 °C 24.4 °F /  -4.2 °C 30.26in /  1024.6hPa East 0.9mph /  1.4km/h 1.0mph /  1.6km/h 27% 0.00in /  0mm 0.0 W/m2
01:06 57.9 °F /  14.4 °C 24.1 °F /  -4.4 °C 30.26in /  1024.6hPa Calm   3.0mph /  4.8km/h 27% 0.00in /  0mm 0.0 W/m2
01:12 57.6 °F /  14.2 °C 23.9 °F /  -4.5 °C 30.26in /  1024.6hPa Calm     27% 0.00in /  0mm 0.0 W/m2
01:18 57.4 °F /  14.1 °C 23.7 °F /  -4.6 °C 30.26in /  1024.6hPa Calm   1.0mph /  1.6km/h 27% 0.00in /  0mm 0.0 W/m2
01:24 57.0 °F /  13.9 °C 23.4 °F /  -4.8 °C 30.26in /  1024.6hPa Calm   1.0mph /  1.6km/h 27% 0.00in /  0mm 0.0 W/m2
01:30 56.7 °F /  13.7 °C 23.0 °F /  -5 °C 30.26in /  1024.6hPa Calm     27% 0.00in /  0mm 0.0 W/m2
01:36 56.3 °F /  13.5 °C 23.5 °F /  -4.7 °C 30.26in /  1024.6hPa Calm     28% 0.00in /  0mm 0.0 W/m2
01:42 55.9 °F /  13.3 °C 23.4 °F /  -4.8 °C 30.26in /  1024.6hPa Calm     28% 0.00in /  0mm 0.0 W/m2
01:48 55.6 °F /  13.1 °C 23.0 °F /  -5 °C 30.26in /  1024.6hPa Calm     28% 0.00in /  0mm 0.0 W/m2
01:55 55.2 °F /  12.9 °C 21.7 °F /  -5.7 °C 30.26in /  1024.6hPa Calm     27% 0.00in /  0mm 0.0 W/m2
02:01 55.0 °F /  12.8 °C 22.5 °F /  -5.3 °C 30.26in /  1024.6hPa Calm     28% 0.00in /  0mm 0.0 W/m2
02:07 54.9 °F /  12.7 °C 20.7 °F /  -6.3 °C 30.26in /  1024.6hPa Calm   1.0mph /  1.6km/h 26% 0.00in /  0mm 0.0 W/m2
02:13 54.9 °F /  12.7 °C 19.8 °F /  -6.8 °C 30.25in /  1024.3hPa Calm   3.0mph /  4.8km/h 25% 0.00in /  0mm 0.0 W/m2
02:19 54.9 °F /  12.7 °C 21.6 °F /  -5.8 °C 30.25in /  1024.3hPa Calm     27% 0.00in /  0mm 0.0 W/m2
02:25 54.5 °F /  12.5 °C 22.1 °F /  -5.5 °C 30.25in /  1024.3hPa Calm     28% 0.00in /  0mm 0.0 W/m2
02:32 54.1 °F /  12.3 °C 19.0 °F /  -7.2 °C 30.25in /  1024.3hPa Calm     25% 0.00in /  0mm 0.0 W/m2
02:38 54.0 °F /  12.2 °C 20.7 °F /  -6.3 °C 30.25in /  1024.3hPa Calm     27% 0.00in /  0mm 0.0 W/m2
02:44 53.6 °F /  12 °C 20.5 °F /  -6.4 °C 30.24in /  1023.9hPa Calm     27% 0.00in /  0mm 0.0 W/m2
02:50 53.2 °F /  11.8 °C 20.1 °F /  -6.6 °C 30.24in /  1023.9hPa Calm     27% 0.00in /  0mm 0.0 W/m2
02:56 52.9 °F /  11.6 °C 19.8 °F /  -6.8 °C 30.24in /  1023.9hPa Calm   1.0mph /  1.6km/h 27% 0.00in /  0mm 0.0 W/m2
03:02 52.2 °F /  11.2 °C 19.2 °F /  -7.1 °C 30.24in /  1023.9hPa Calm     27% 0.00in /  0mm 0.0 W/m2
03:08 52.0 °F /  11.1 °C 19.9 °F /  -6.7 °C 30.24in /  1023.9hPa Calm     28% 0.00in /  0mm 0.0 W/m2
03:14 51.6 °F /  10.9 °C 17.8 °F /  -7.9 °C 30.24in /  1023.9hPa Calm   1.0mph /  1.6km/h 26% 0.00in /  0mm 0.0 W/m2
03:21 52.0 °F /  11.1 °C 17.2 °F /  -8.2 °C 30.24in /  1023.9hPa Calm   1.0mph /  1.6km/h 25% 0.00in /  0mm 0.0 W/m2
03:27 52.3 °F /  11.3 °C 17.6 °F /  -8 °C 30.24in /  1023.9hPa Calm   1.0mph /  1.6km/h 25% 0.00in /  0mm 0.0 W/m2
03:33 52.5 °F /  11.4 °C 18.7 °F /  -7.4 °C 30.24in /  1023.9hPa Calm     26% 0.00in /  0mm 0.0 W/m2
03:39 52.3 °F /  11.3 °C 18.5 °F /  -7.5 °C 30.24in /  1023.9hPa Calm   2.0mph /  3.2km/h 26% 0.00in /  0mm 0.0 W/m2
03:45 52.3 °F /  11.3 °C 18.5 °F /  -7.5 °C 30.24in /  1023.9hPa SSE 0.9mph /  1.4km/h 1.0mph /  1.6km/h 26% 0.00in /  0mm 0.0 W/m2
03:51 52.2 °F /  11.2 °C 19.2 °F /  -7.1 °C 30.24in /  1023.9hPa Calm   1.0mph /  1.6km/h 27% 0.00in /  0mm 0.0 W/m2
03:57 51.8 °F /  11 °C 18.0 °F /  -7.8 °C 30.24in /  1023.9hPa Calm   2.0mph /  3.2km/h 26% 0.00in /  0mm 0.0 W/m2
04:03 51.6 °F /  10.9 °C 18.7 °F /  -7.4 °C 30.24in /  1023.9hPa Calm   1.0mph /  1.6km/h 27% 0.00in /  0mm 0.0 W/m2
04:10 51.4 °F /  10.8 °C 18.5 °F /  -7.5 °C 30.24in /  1023.9hPa Calm   3.0mph /  4.8km/h 27% 0.00in /  0mm 0.0 W/m2
04:20 51.8 °F /  11 °C 18.0 °F /  -7.8 °C 30.24in /  1023.9hPa Calm   6.0mph /  9.7km/h 26% 0.00in /  0mm 0.0 W/m2
04:26 53.6 °F /  12 °C 17.6 °F /  -8 °C 30.25in /  1024.3hPa ESE 0.9mph /  1.4km/h 5.0mph /  8km/h 24% 0.00in /  0mm 0.0 W/m2
04:32 55.6 °F /  13.1 °C 18.3 °F /  -7.6 °C 30.25in /  1024.3hPa East 2.0mph /  3.2km/h 3.0mph /  4.8km/h 23% 0.00in /  0mm 0.0 W/m2
04:42 57.9 °F /  14.4 °C 18.1 °F /  -7.7 °C 30.25in /  1024.3hPa SE 2.9mph /  4.7km/h 7.0mph /  11.3km/h 21% 0.00in /  0mm 0.0 W/m2
04:46 59.0 °F /  15 °C 18.0 °F /  -7.8 °C 30.25in /  1024.3hPa SE 0.9mph /  1.4km/h 5.0mph /  8km/h 20% 0.00in /  0mm 0.0 W/m2
04:52 59.5 °F /  15.3 °C 18.5 °F /  -7.5 °C 30.25in /  1024.3hPa SSE 0.9mph /  1.4km/h 4.0mph /  6.4km/h 20% 0.00in /  0mm 0.0 W/m2
04:58 59.5 °F /  15.3 °C 18.5 °F /  -7.5 °C 30.26in /  1024.6hPa Calm   1.0mph /  1.6km/h 20% 0.00in /  0mm 0.0 W/m2
05:05 59.0 °F /  15 °C 19.0 °F /  -7.2 °C 30.26in /  1024.6hPa Calm     21% 0.00in /  0mm 0.0 W/m2
05:11 58.3 °F /  14.6 °C 18.5 °F /  -7.5 °C 30.25in /  1024.3hPa Calm   1.0mph /  1.6km/h 21% 0.00in /  0mm 0.0 W/m2
05:17 57.6 °F /  14.2 °C 18.0 °F /  -7.8 °C 30.25in /  1024.3hPa Calm   4.0mph /  6.4km/h 21% 0.00in /  0mm 0.0 W/m2
05:23 57.0 °F /  13.9 °C 18.5 °F /  -7.5 °C 30.26in /  1024.6hPa Calm     22% 0.00in /  0mm 0.0 W/m2
05:29 56.7 °F /  13.7 °C 18.3 °F /  -7.6 °C 30.26in /  1024.6hPa Calm   1.0mph /  1.6km/h 22% 0.00in /  0mm 0.0 W/m2
05:35 56.1 °F /  13.4 °C 17.8 °F /  -7.9 °C 30.26in /  1024.6hPa Calm   2.0mph /  3.2km/h 22% 0.00in /  0mm 0.0 W/m2
05:41 55.6 °F /  13.1 °C 18.3 °F /  -7.6 °C 30.26in /  1024.6hPa Calm   1.0mph /  1.6km/h 23% 0.00in /  0mm 0.0 W/m2
05:48 55.2 °F /  12.9 °C 18.1 °F /  -7.7 °C 30.27in /  1024.9hPa ESE 4.0mph /  6.4km/h 4.0mph /  6.4km/h 23% 0.00in /  0mm 0.0 W/m2
05:54 55.9 °F /  13.3 °C 17.6 °F /  -8 °C 30.27in /  1024.9hPa ESE 4.0mph /  6.4km/h 9.0mph /  14.5km/h 22% 0.00in /  0mm 0.0 W/m2
06:00 56.8 °F /  13.8 °C 17.2 °F /  -8.2 °C 30.27in /  1024.9hPa Calm   6.0mph /  9.7km/h 21% 0.00in /  0mm 0.0 W/m2
06:06 56.8 °F /  13.8 °C 17.2 °F /  -8.2 °C 30.28in /  1025.3hPa Calm   1.0mph /  1.6km/h 21% 0.00in /  0mm 5.0 W/m2
06:12 56.7 °F /  13.7 °C 18.3 °F /  -7.6 °C 30.28in /  1025.3hPa Calm   1.0mph /  1.6km/h 22% 0.00in /  0mm 9.0 W/m2
06:18 56.1 °F /  13.4 °C 17.8 °F /  -7.9 °C 30.29in /  1025.6hPa South 2.0mph /  3.2km/h 4.0mph /  6.4km/h 22% 0.00in /  0mm 12.0 W/m2
06:24 56.7 °F /  13.7 °C 18.3 °F /  -7.6 °C 30.29in /  1025.6hPa East 0.9mph /  1.4km/h 6.0mph /  9.7km/h 22% 0.00in /  0mm 18.0 W/m2
06:31 57.6 °F /  14.2 °C 19.0 °F /  -7.2 °C 30.29in /  1025.6hPa Calm   4.0mph /  6.4km/h 22% 0.00in /  0mm 23.0 W/m2
06:37 57.9 °F /  14.4 °C 18.1 °F /  -7.7 °C 30.29in /  1025.6hPa SE 2.9mph /  4.7km/h 5.0mph /  8km/h 21% 0.00in /  0mm 28.0 W/m2
06:43 57.6 °F /  14.2 °C 18.0 °F /  -7.8 °C 30.30in /  1026hPa Calm   2.0mph /  3.2km/h 21% 0.00in /  0mm 32.0 W/m2
06:49 57.4 °F /  14.1 °C 19.9 °F /  -6.7 °C 30.29in /  1025.6hPa Calm   1.0mph /  1.6km/h 23% 0.00in /  0mm 35.0 W/m2
06:55 56.8 °F /  13.8 °C 20.5 °F /  -6.4 °C 30.29in /  1025.6hPa Calm     24% 0.00in /  0mm 40.0 W/m2
07:01 56.7 °F /  13.7 °C 20.3 °F /  -6.5 °C 30.29in /  1025.6hPa Calm   1.0mph /  1.6km/h 24% 0.00in /  0mm 44.0 W/m2
07:08 56.7 °F /  13.7 °C 19.2 °F /  -7.1 °C 30.30in /  1026hPa Calm   3.0mph /  4.8km/h 23% 0.00in /  0mm 47.0 W/m2
07:14 56.7 °F /  13.7 °C 20.3 °F /  -6.5 °C 30.30in /  1026hPa Calm     24% 0.00in /  0mm 51.0 W/m2
07:20 56.8 °F /  13.8 °C 20.5 °F /  -6.4 °C 30.30in /  1026hPa Calm   1.0mph /  1.6km/h 24% 0.00in /  0mm 54.0 W/m2
07:26 57.6 °F /  14.2 °C 19.9 °F /  -6.7 °C 30.30in /  1026hPa ENE 4.0mph /  6.4km/h 7.0mph /  11.3km/h 23% 0.00in /  0mm 58.0 W/m2
07:32 58.8 °F /  14.9 °C 20.1 °F /  -6.6 °C 30.29in /  1025.6hPa ENE 2.0mph /  3.2km/h 8.0mph /  12.9km/h 22% 0.00in /  0mm 62.0 W/m2
07:38 60.1 °F /  15.6 °C 19.9 °F /  -6.7 °C 30.30in /  1026hPa NNE 2.0mph /  3.2km/h 2.0mph /  3.2km/h 21% 0.00in /  0mm 65.0 W/m2
07:40 60.3 °F /  15.7 °C 20.1 °F /  -6.6 °C 30.29in /  1025.6hPa ENE 2.0mph /  3.2km/h 4.0mph /  6.4km/h 21% 0.00in /  0mm 65.0 W/m2
07:46 61.2 °F /  16.2 °C 19.8 °F /  -6.8 °C 30.29in /  1025.6hPa NNE 2.9mph /  4.7km/h 7.0mph /  11.3km/h 20% 0.00in /  0mm 69.0 W/m2
07:52 62.1 °F /  16.7 °C 21.7 °F /  -5.7 °C 30.29in /  1025.6hPa NNE 0.9mph /  1.4km/h 11.0mph /  17.7km/h 21% 0.00in /  0mm 72.0 W/m2
07:58 62.6 °F /  17 °C 19.8 °F /  -6.8 °C 30.29in /  1025.6hPa East 2.0mph /  3.2km/h 9.0mph /  14.5km/h 19% 0.00in /  0mm 76.0 W/m2
08:05 63.3 °F /  17.4 °C 20.3 °F /  -6.5 °C 30.30in /  1026hPa NE 8.1mph /  13km/h 11.0mph /  17.7km/h 19% 0.00in /  0mm 84.0 W/m2
08:11 64.0 °F /  17.8 °C 21.0 °F /  -6.1 °C 30.29in /  1025.6hPa Calm   8.0mph /  12.9km/h 19% 0.00in /  0mm 83.0 W/m2
08:17 64.6 °F /  18.1 °C 21.4 °F /  -5.9 °C 30.29in /  1025.6hPa ENE 8.9mph /  14.3km/h 9.0mph /  14.5km/h 19% 0.00in /  0mm 84.0 W/m2
08:23 64.9 °F /  18.3 °C 20.5 °F /  -6.4 °C 30.29in /  1025.6hPa East 2.9mph /  4.7km/h 7.0mph /  11.3km/h 18% 0.00in /  0mm 86.0 W/m2
08:29 65.5 °F /  18.6 °C 22.1 °F /  -5.5 °C 30.29in /  1025.6hPa NE 2.9mph /  4.7km/h 8.0mph /  12.9km/h 19% 0.00in /  0mm 90.0 W/m2
08:35 65.8 °F /  18.8 °C 19.8 °F /  -6.8 °C 30.29in /  1025.6hPa NE 11.0mph /  17.7km/h 11.0mph /  17.7km/h 17% 0.00in /  0mm 125.0 W/m2
08:41 66.4 °F /  19.1 °C 20.3 °F /  -6.5 °C 30.29in /  1025.6hPa ENE 6.0mph /  9.7km/h 11.0mph /  17.7km/h 17% 0.00in /  0mm 461.0 W/m2
08:47 67.3 °F /  19.6 °C 21.0 °F /  -6.1 °C 30.29in /  1025.6hPa SE 8.9mph /  14.3km/h 12.0mph /  19.3km/h 17% 0.00in /  0mm 482.0 W/m2
08:54 68.0 °F /  20 °C 21.6 °F /  -5.8 °C 30.29in /  1025.6hPa ENE 6.0mph /  9.7km/h 7.0mph /  11.3km/h 17% 0.00in /  0mm 499.0 W/m2
09:00 68.7 °F /  20.4 °C 20.7 °F /  -6.3 °C 30.29in /  1025.6hPa ESE 6.9mph /  11.1km/h 11.0mph /  17.7km/h 16% 0.00in /  0mm 520.0 W/m2
09:06 69.3 °F /  20.7 °C 21.2 °F /  -6 °C 30.29in /  1025.6hPa East 4.0mph /  6.4km/h 10.0mph /  16.1km/h 16% 0.00in /  0mm 534.0 W/m2
09:12 69.8 °F /  21 °C 21.6 °F /  -5.8 °C 30.29in /  1025.6hPa East 8.1mph /  13km/h 13.0mph /  20.9km/h 16% 0.00in /  0mm 557.0 W/m2
09:18 70.2 °F /  21.2 °C 21.9 °F /  -5.6 °C 30.29in /  1025.6hPa NE 8.1mph /  13km/h 10.0mph /  16.1km/h 16% 0.00in /  0mm 573.0 W/m2
09:24 70.5 °F /  21.4 °C 22.1 °F /  -5.5 °C 30.29in /  1025.6hPa ENE 4.0mph /  6.4km/h 15.0mph /  24.1km/h 16% 0.00in /  0mm 587.0 W/m2
09:30 71.1 °F /  21.7 °C 24.1 °F /  -4.4 °C 30.29in /  1025.6hPa East 2.0mph /  3.2km/h 7.0mph /  11.3km/h 17% 0.00in /  0mm 603.0 W/m2
09:36 71.8 °F /  22.1 °C 21.6 °F /  -5.8 °C 30.28in /  1025.3hPa East 0.9mph /  1.4km/h 11.0mph /  17.7km/h 15% 0.00in /  0mm 617.0 W/m2
09:42 72.3 °F /  22.4 °C 22.1 °F /  -5.5 °C 30.28in /  1025.3hPa ENE 6.0mph /  9.7km/h 9.0mph /  14.5km/h 15% 0.00in /  0mm 631.0 W/m2
09:49 72.7 °F /  22.6 °C 20.7 °F /  -6.3 °C 30.28in /  1025.3hPa NE 8.1mph /  13km/h 11.0mph /  17.7km/h 14% 0.00in /  0mm 645.0 W/m2
09:55 73.0 °F /  22.8 °C 22.6 °F /  -5.2 °C 30.28in /  1025.3hPa East 2.0mph /  3.2km/h 10.0mph /  16.1km/h 15% 0.00in /  0mm 661.0 W/m2
10:01 73.6 °F /  23.1 °C 23.0 °F /  -5 °C 30.28in /  1025.3hPa NE 2.0mph /  3.2km/h 11.0mph /  17.7km/h 15% 0.00in /  0mm 673.0 W/m2
10:07 73.9 °F /  23.3 °C 21.7 °F /  -5.7 °C 30.28in /  1025.3hPa North 2.0mph /  3.2km/h 12.0mph /  19.3km/h 14% 0.00in /  0mm 687.0 W/m2
10:13 74.1 °F /  23.4 °C 23.5 °F /  -4.7 °C 30.27in /  1024.9hPa SE 6.9mph /  11.1km/h 11.0mph /  17.7km/h 15% 0.00in /  0mm 694.0 W/m2
10:19 74.7 °F /  23.7 °C 22.3 °F /  -5.4 °C 30.27in /  1024.9hPa SSE 2.9mph /  4.7km/h 8.0mph /  12.9km/h 14% 0.00in /  0mm 708.0 W/m2
10:25 75.0 °F /  23.9 °C 22.6 °F /  -5.2 °C 30.27in /  1024.9hPa ENE 2.0mph /  3.2km/h 11.0mph /  17.7km/h 14% 0.00in /  0mm 717.0 W/m2
10:31 75.0 °F /  23.9 °C 22.6 °F /  -5.2 °C 30.27in /  1024.9hPa ENE 2.9mph /  4.7km/h 11.0mph /  17.7km/h 14% 0.00in /  0mm 731.0 W/m2
10:37 75.4 °F /  24.1 °C 22.8 °F /  -5.1 °C 30.26in /  1024.6hPa East 2.0mph /  3.2km/h 9.0mph /  14.5km/h 14% 0.00in /  0mm 737.0 W/m2
10:44 75.9 °F /  24.4 °C 23.4 °F /  -4.8 °C 30.26in /  1024.6hPa NE 2.0mph /  3.2km/h 10.0mph /  16.1km/h 14% 0.00in /  0mm 744.0 W/m2
10:50 76.5 °F /  24.7 °C 21.9 °F /  -5.6 °C 30.26in /  1024.6hPa ENE 6.0mph /  9.7km/h 9.0mph /  14.5km/h 13% 0.00in /  0mm 751.0 W/m2
10:56 76.8 °F /  24.9 °C 24.1 °F /  -4.4 °C 30.25in /  1024.3hPa East 4.9mph /  7.9km/h 10.0mph /  16.1km/h 14% 0.00in /  0mm 761.0 W/m2
11:02 77.2 °F /  25.1 °C 22.5 °F /  -5.3 °C 30.25in /  1024.3hPa NNE 2.0mph /  3.2km/h 9.0mph /  14.5km/h 13% 0.00in /  0mm 770.0 W/m2
11:08 77.4 °F /  25.2 °C 22.6 °F /  -5.2 °C 30.25in /  1024.3hPa NE 2.9mph /  4.7km/h 8.0mph /  12.9km/h 13% 0.00in /  0mm 775.0 W/m2
11:14 77.7 °F /  25.4 °C 23.0 °F /  -5 °C 30.24in /  1023.9hPa ESE 4.9mph /  7.9km/h 9.0mph /  14.5km/h 13% 0.00in /  0mm 775.0 W/m2
11:20 78.3 °F /  25.7 °C 23.4 °F /  -4.8 °C 30.24in /  1023.9hPa East 4.9mph /  7.9km/h 10.0mph /  16.1km/h 13% 0.00in /  0mm 780.0 W/m2
11:26 78.4 °F /  25.8 °C 23.5 °F /  -4.7 °C 30.24in /  1023.9hPa ENE 0.9mph /  1.4km/h 7.0mph /  11.3km/h 13% 0.00in /  0mm 779.0 W/m2
11:33 79.0 °F /  26.1 °C 23.9 °F /  -4.5 °C 30.23in /  1023.6hPa East 6.0mph /  9.7km/h 9.0mph /  14.5km/h 13% 0.00in /  0mm 784.0 W/m2
11:39 79.0 °F /  26.1 °C 23.9 °F /  -4.5 °C 30.23in /  1023.6hPa SSE 4.0mph /  6.4km/h 10.0mph /  16.1km/h 13% 0.00in /  0mm 786.0 W/m2
11:45 79.3 °F /  26.3 °C 24.3 °F /  -4.3 °C 30.23in /  1023.6hPa ENE 8.1mph /  13km/h 8.1mph /  13km/h 13% 0.00in /  0mm 784.0 W/m2
11:51 79.5 °F /  26.4 °C 24.4 °F /  -4.2 °C 30.22in /  1023.2hPa East 4.0mph /  6.4km/h 8.0mph /  12.9km/h 13% 0.00in /  0mm 788.0 W/m2
11:57 79.7 °F /  26.5 °C 24.4 °F /  -4.2 °C 30.22in /  1023.2hPa NE 4.0mph /  6.4km/h 8.0mph /  12.9km/h 13% 0.00in /  0mm 791.0 W/m2
12:03 80.2 °F /  26.8 °C 23.0 °F /  -5 °C 30.22in /  1023.2hPa NE 6.0mph /  9.7km/h 9.0mph /  14.5km/h 12% 0.00in /  0mm 786.0 W/m2
12:09 80.1 °F /  26.7 °C 24.8 °F /  -4 °C 30.21in /  1022.9hPa SSE 2.0mph /  3.2km/h 7.0mph /  11.3km/h 13% 0.00in /  0mm 786.0 W/m2
12:15 80.6 °F /  27 °C 25.2 °F /  -3.8 °C 30.21in /  1022.9hPa SSE 0.9mph /  1.4km/h 5.0mph /  8km/h 13% 0.00in /  0mm 786.0 W/m2
12:22 81.3 °F /  27.4 °C 25.7 °F /  -3.5 °C 30.20in /  1022.6hPa ESE 8.1mph /  13km/h 8.1mph /  13km/h 13% 0.00in /  0mm 788.0 W/m2
12:28 82.0 °F /  27.8 °C 26.4 °F /  -3.1 °C 30.20in /  1022.6hPa SSE 2.9mph /  4.7km/h 4.0mph /  6.4km/h 13% 0.00in /  0mm 780.0 W/m2
12:34 82.4 °F /  28 °C 24.6 °F /  -4.1 °C 30.20in /  1022.6hPa ESE 4.0mph /  6.4km/h 5.0mph /  8km/h 12% 0.00in /  0mm 772.0 W/m2
12:40 81.9 °F /  27.7 °C 24.3 °F /  -4.3 °C 30.19in /  1022.2hPa WNW 8.1mph /  13km/h 19.0mph /  30.6km/h 12% 0.00in /  0mm 759.0 W/m2
12:46 82.2 °F /  27.9 °C 24.6 °F /  -4.1 °C 30.19in /  1022.2hPa NNW 6.0mph /  9.7km/h 7.0mph /  11.3km/h 12% 0.00in /  0mm 758.0 W/m2
12:52 82.8 °F /  28.2 °C 25.0 °F /  -3.9 °C 30.19in /  1022.2hPa NNE 6.0mph /  9.7km/h 8.0mph /  12.9km/h 12% 0.00in /  0mm 745.0 W/m2
12:58 82.9 °F /  28.3 °C 25.2 °F /  -3.8 °C 30.18in /  1021.9hPa NNE 4.0mph /  6.4km/h 10.0mph /  16.1km/h 12% 0.00in /  0mm 735.0 W/m2
13:04 82.9 °F /  28.3 °C 25.2 °F /  -3.8 °C 30.18in /  1021.9hPa Calm   1.0mph /  1.6km/h 12% 0.00in /  0mm 726.0 W/m2
13:11 83.3 °F /  28.5 °C 25.3 °F /  -3.7 °C 30.18in /  1021.9hPa NE 4.0mph /  6.4km/h 5.0mph /  8km/h 12% 0.00in /  0mm 715.0 W/m2
13:17 83.5 °F /  28.6 °C 25.5 °F /  -3.6 °C 30.17in /  1021.6hPa SSE 0.9mph /  1.4km/h 6.0mph /  9.7km/h 12% 0.00in /  0mm 700.0 W/m2
13:23 83.7 °F /  28.7 °C 25.7 °F /  -3.5 °C 30.17in /  1021.6hPa NNE 2.9mph /  4.7km/h 7.0mph /  11.3km/h 12% 0.00in /  0mm 682.0 W/m2
13:29 83.8 °F /  28.8 °C 25.9 °F /  -3.4 °C 30.17in /  1021.6hPa NW 2.0mph /  3.2km/h 2.0mph /  3.2km/h 12% 0.00in /  0mm 673.0 W/m2
13:35 84.4 °F /  29.1 °C 26.2 °F /  -3.2 °C 30.16in /  1021.2hPa NNE 2.0mph /  3.2km/h 6.0mph /  9.7km/h 12% 0.00in /  0mm 670.0 W/m2
13:41 84.7 °F /  29.3 °C 24.4 °F /  -4.2 °C 30.16in /  1021.2hPa NNW 4.0mph /  6.4km/h 8.0mph /  12.9km/h 11% 0.00in /  0mm 650.0 W/m2
13:48 84.9 °F /  29.4 °C 24.6 °F /  -4.1 °C 30.16in /  1021.2hPa NNW 6.0mph /  9.7km/h 7.0mph /  11.3km/h 11% 0.00in /  0mm 626.0 W/m2
13:55 84.7 °F /  29.3 °C 24.4 °F /  -4.2 °C 30.16in /  1021.2hPa NNE 0.9mph /  1.4km/h 3.0mph /  4.8km/h 11% 0.00in /  0mm 629.0 W/m2
14:01 84.6 °F /  29.2 °C 26.4 °F /  -3.1 °C 30.15in /  1020.9hPa Calm   3.0mph /  4.8km/h 12% 0.00in /  0mm 599.0 W/m2
14:06 85.1 °F /  29.5 °C 26.8 °F /  -2.9 °C 30.15in /  1020.9hPa West 0.9mph /  1.4km/h 7.0mph /  11.3km/h 12% 0.00in /  0mm 589.0 W/m2
14:12 85.5 °F /  29.7 °C 25.0 °F /  -3.9 °C 30.15in /  1020.9hPa WNW 2.0mph /  3.2km/h 7.0mph /  11.3km/h 11% 0.00in /  0mm 563.0 W/m2
14:19 85.3 °F /  29.6 °C 24.8 °F /  -4 °C 30.15in /  1020.9hPa WSW 4.0mph /  6.4km/h 8.0mph /  12.9km/h 11% 0.00in /  0mm 552.0 W/m2
14:25 85.3 °F /  29.6 °C 24.8 °F /  -4 °C 30.15in /  1020.9hPa NNW 2.0mph /  3.2km/h 9.0mph /  14.5km/h 11% 0.00in /  0mm 529.0 W/m2
14:31 85.3 °F /  29.6 °C 24.8 °F /  -4 °C 30.15in /  1020.9hPa West 6.9mph /  11.1km/h 10.0mph /  16.1km/h 11% 0.00in /  0mm 515.0 W/m2
14:37 85.3 °F /  29.6 °C 24.8 °F /  -4 °C 30.15in /  1020.9hPa NNW 0.9mph /  1.4km/h 5.0mph /  8km/h 11% 0.00in /  0mm 497.0 W/m2
14:43 85.5 °F /  29.7 °C 22.6 °F /  -5.2 °C 30.14in /  1020.5hPa NNW 4.0mph /  6.4km/h 10.0mph /  16.1km/h 10% 0.00in /  0mm 476.0 W/m2
14:49 85.3 °F /  29.6 °C 24.8 °F /  -4 °C 30.15in /  1020.9hPa Calm   11.0mph /  17.7km/h 11% 0.00in /  0mm 464.0 W/m2
14:55 85.3 °F /  29.6 °C 24.8 °F /  -4 °C 30.15in /  1020.9hPa WNW 2.0mph /  3.2km/h 10.0mph /  16.1km/h 11% 0.00in /  0mm 443.0 W/m2
15:01 85.3 °F /  29.6 °C 24.8 °F /  -4 °C 30.15in /  1020.9hPa NW 2.0mph /  3.2km/h 5.0mph /  8km/h 11% 0.00in /  0mm 425.0 W/m2
15:07 85.3 °F /  29.6 °C 24.8 °F /  -4 °C 30.15in /  1020.9hPa WNW 2.9mph /  4.7km/h 14.0mph /  22.5km/h 11% 0.00in /  0mm 396.0 W/m2
15:13 84.9 °F /  29.4 °C 24.6 °F /  -4.1 °C 30.15in /  1020.9hPa SW 4.9mph /  7.9km/h 10.0mph /  16.1km/h 11% 0.00in /  0mm 376.0 W/m2
15:19 84.7 °F /  29.3 °C 26.4 °F /  -3.1 °C 30.15in /  1020.9hPa WSW 2.9mph /  4.7km/h 5.0mph /  8km/h 12% 0.00in /  0mm 364.0 W/m2
15:25 84.7 °F /  29.3 °C 24.4 °F /  -4.2 °C 30.15in /  1020.9hPa NNW 0.9mph /  1.4km/h 7.0mph /  11.3km/h 11% 0.00in /  0mm 346.0 W/m2
15:31 84.4 °F /  29.1 °C 24.1 °F /  -4.4 °C 30.16in /  1021.2hPa West 2.9mph /  4.7km/h 11.0mph /  17.7km/h 11% 0.00in /  0mm 318.0 W/m2
15:37 83.8 °F /  28.8 °C 25.9 °F /  -3.4 °C 30.15in /  1020.9hPa WNW 4.0mph /  6.4km/h 8.0mph /  12.9km/h 12% 0.00in /  0mm 302.0 W/m2
15:43 83.8 °F /  28.8 °C 25.9 °F /  -3.4 °C 30.15in /  1020.9hPa Calm   6.0mph /  9.7km/h 12% 0.00in /  0mm 283.0 W/m2
15:49 83.8 °F /  28.8 °C 25.9 °F /  -3.4 °C 30.16in /  1021.2hPa SW 11.0mph /  17.7km/h 13.0mph /  20.9km/h 12% 0.00in /  0mm 267.0 W/m2
15:55 83.5 °F /  28.6 °C 25.5 °F /  -3.6 °C 30.16in /  1021.2hPa Calm   3.0mph /  4.8km/h 12% 0.00in /  0mm 250.0 W/m2
16:01 83.1 °F /  28.4 °C 23.2 °F /  -4.9 °C 30.16in /  1021.2hPa WSW 10.1mph /  16.3km/h 11.0mph /  17.7km/h 11% 0.00in /  0mm 239.0 W/m2
16:07 82.6 °F /  28.1 °C 24.8 °F /  -4 °C 30.16in /  1021.2hPa WSW 10.1mph /  16.3km/h 10.1mph /  16.3km/h 12% 0.00in /  0mm 223.0 W/m2
16:13 82.0 °F /  27.8 °C 24.4 °F /  -4.2 °C 30.16in /  1021.2hPa West 2.9mph /  4.7km/h 9.0mph /  14.5km/h 12% 0.00in /  0mm 204.0 W/m2
16:19 82.0 °F /  27.8 °C 22.3 °F /  -5.4 °C 30.16in /  1021.2hPa West 6.9mph /  11.1km/h 10.0mph /  16.1km/h 11% 0.00in /  0mm 163.0 W/m2
16:25 81.7 °F /  27.6 °C 22.1 °F /  -5.5 °C 30.16in /  1021.2hPa WNW 2.0mph /  3.2km/h 5.0mph /  8km/h 11% 0.00in /  0mm 113.0 W/m2
16:31 81.7 °F /  27.6 °C 22.1 °F /  -5.5 °C 30.16in /  1021.2hPa West 2.9mph /  4.7km/h 5.0mph /  8km/h 11% 0.00in /  0mm 95.0 W/m2
16:37 81.3 °F /  27.4 °C 21.7 °F /  -5.7 °C 30.16in /  1021.2hPa SW 2.9mph /  4.7km/h 8.0mph /  12.9km/h 11% 0.00in /  0mm 76.0 W/m2
16:43 81.0 °F /  27.2 °C 23.5 °F /  -4.7 °C 30.16in /  1021.2hPa Calm   5.0mph /  8km/h 12% 0.00in /  0mm 69.0 W/m2
16:49 80.8 °F /  27.1 °C 23.4 °F /  -4.8 °C 30.17in /  1021.6hPa SW 2.9mph /  4.7km/h 6.0mph /  9.7km/h 12% 0.00in /  0mm 81.0 W/m2
16:55 80.4 °F /  26.9 °C 23.2 °F /  -4.9 °C 30.16in /  1021.2hPa WSW 0.9mph /  1.4km/h 5.0mph /  8km/h 12% 0.00in /  0mm 54.0 W/m2
17:01 80.2 °F /  26.8 °C 23.0 °F /  -5 °C 30.17in /  1021.6hPa WSW 4.0mph /  6.4km/h 8.0mph /  12.9km/h 12% 0.00in /  0mm 40.0 W/m2
17:07 79.9 °F /  26.6 °C 24.6 °F /  -4.1 °C 30.17in /  1021.6hPa WNW 9.0mph /  14.5km/h 9.0mph /  14.5km/h 13% 0.00in /  0mm 32.0 W/m2
17:13 79.5 °F /  26.4 °C 24.4 °F /  -4.2 °C 30.17in /  1021.6hPa WSW 8.9mph /  14.3km/h 9.0mph /  14.5km/h 13% 0.00in /  0mm 25.0 W/m2
17:19 79.2 °F /  26.2 °C 24.1 °F /  -4.4 °C 30.17in /  1021.6hPa West 0.9mph /  1.4km/h 5.0mph /  8km/h 13% 0.00in /  0mm 19.0 W/m2
17:25 78.6 °F /  25.9 °C 23.7 °F /  -4.6 °C 30.18in /  1021.9hPa WSW 2.0mph /  3.2km/h 3.0mph /  4.8km/h 13% 0.00in /  0mm 14.0 W/m2
17:31 78.3 °F /  25.7 °C 25.2 °F /  -3.8 °C 30.18in /  1021.9hPa WSW 2.0mph /  3.2km/h 5.0mph /  8km/h 14% 0.00in /  0mm 9.0 W/m2
17:37 77.9 °F /  25.5 °C 23.2 °F /  -4.9 °C 30.18in /  1021.9hPa West 2.0mph /  3.2km/h 6.0mph /  9.7km/h 13% 0.00in /  0mm 5.0 W/m2
17:43 77.5 °F /  25.3 °C 24.6 °F /  -4.1 °C 30.18in /  1021.9hPa SW 0.9mph /  1.4km/h 2.0mph /  3.2km/h 14% 0.00in /  0mm 0.0 W/m2
17:50 76.8 °F /  24.9 °C 24.1 °F /  -4.4 °C 30.18in /  1021.9hPa SSW 2.9mph /  4.7km/h 4.0mph /  6.4km/h 14% 0.00in /  0mm 0.0 W/m2
17:55 76.3 °F /  24.6 °C 23.5 °F /  -4.7 °C 30.19in /  1022.2hPa SSW 2.0mph /  3.2km/h 6.0mph /  9.7km/h 14% 0.00in /  0mm 0.0 W/m2
18:01 75.7 °F /  24.3 °C 24.8 °F /  -4 °C 30.19in /  1022.2hPa SSW 2.0mph /  3.2km/h 5.0mph /  8km/h 15% 0.00in /  0mm 0.0 W/m2
18:07 75.2 °F /  24 °C 24.4 °F /  -4.2 °C 30.19in /  1022.2hPa SSW 2.9mph /  4.7km/h 5.0mph /  8km/h 15% 0.00in /  0mm 0.0 W/m2
18:13 74.7 °F /  23.7 °C 25.5 °F /  -3.6 °C 30.19in /  1022.2hPa SSW 4.9mph /  7.9km/h 8.0mph /  12.9km/h 16% 0.00in /  0mm 0.0 W/m2
18:19 74.3 °F /  23.5 °C 25.2 °F /  -3.8 °C 30.19in /  1022.2hPa Calm   5.0mph /  8km/h 16% 0.00in /  0mm 0.0 W/m2
18:25 73.8 °F /  23.2 °C 24.8 °F /  -4 °C 30.20in /  1022.6hPa SSW 2.0mph /  3.2km/h 6.0mph /  9.7km/h 16% 0.00in /  0mm 0.0 W/m2
18:31 73.4 °F /  23 °C 24.4 °F /  -4.2 °C 30.20in /  1022.6hPa Calm   1.0mph /  1.6km/h 16% 0.00in /  0mm 0.0 W/m2
18:37 73.0 °F /  22.8 °C 24.3 °F /  -4.3 °C 30.20in /  1022.6hPa Calm   1.0mph /  1.6km/h 16% 0.00in /  0mm 0.0 W/m2
18:43 72.5 °F /  22.5 °C 25.2 °F /  -3.8 °C 30.20in /  1022.6hPa Calm   1.0mph /  1.6km/h 17% 0.00in /  0mm 0.0 W/m2
18:49 72.1 °F /  22.3 °C 25.0 °F /  -3.9 °C 30.21in /  1022.9hPa SSW 2.0mph /  3.2km/h 6.0mph /  9.7km/h 17% 0.00in /  0mm 0.0 W/m2
18:55 72.0 °F /  22.2 °C 24.8 °F /  -4 °C 30.21in /  1022.9hPa South 2.9mph /  4.7km/h 7.0mph /  11.3km/h 17% 0.00in /  0mm 0.0 W/m2
19:01 71.8 °F /  22.1 °C 24.6 °F /  -4.1 °C 30.21in /  1022.9hPa SSE 8.1mph /  13km/h 13.0mph /  20.9km/h 17% 0.00in /  0mm 0.0 W/m2
19:07 71.4 °F /  21.9 °C 25.7 °F /  -3.5 °C 30.22in /  1023.2hPa South 2.9mph /  4.7km/h 3.0mph /  4.8km/h 18% 0.00in /  0mm 0.0 W/m2
19:13 71.1 °F /  21.7 °C 25.3 °F /  -3.7 °C 30.22in /  1023.2hPa SE 6.0mph /  9.7km/h 7.0mph /  11.3km/h 18% 0.00in /  0mm 0.0 W/m2
19:19 70.7 °F /  21.5 °C 25.2 °F /  -3.8 °C 30.22in /  1023.2hPa South 4.9mph /  7.9km/h 11.0mph /  17.7km/h 18% 0.00in /  0mm 0.0 W/m2
19:25 70.3 °F /  21.3 °C 24.8 °F /  -4 °C 30.22in /  1023.2hPa SSW 2.9mph /  4.7km/h 5.0mph /  8km/h 18% 0.00in /  0mm 0.0 W/m2
19:31 70.0 °F /  21.1 °C 24.4 °F /  -4.2 °C 30.22in /  1023.2hPa SSE 6.0mph /  9.7km/h 8.0mph /  12.9km/h 18% 0.00in /  0mm 0.0 W/m2
19:37 69.8 °F /  21 °C 24.4 °F /  -4.2 °C 30.23in /  1023.6hPa South 2.0mph /  3.2km/h 6.0mph /  9.7km/h 18% 0.00in /  0mm 0.0 W/m2
19:43 69.6 °F /  20.9 °C 24.3 °F /  -4.3 °C 30.23in /  1023.6hPa South 4.0mph /  6.4km/h 5.0mph /  8km/h 18% 0.00in /  0mm 0.0 W/m2
19:49 69.3 °F /  20.7 °C 23.9 °F /  -4.5 °C 30.24in /  1023.9hPa SSW 2.0mph /  3.2km/h 9.0mph /  14.5km/h 18% 0.00in /  0mm 0.0 W/m2
19:55 68.9 °F /  20.5 °C 25.0 °F /  -3.9 °C 30.24in /  1023.9hPa Calm   7.0mph /  11.3km/h 19% 0.00in /  0mm 0.0 W/m2
20:01 68.5 °F /  20.3 °C 24.6 °F /  -4.1 °C 30.24in /  1023.9hPa South 0.9mph /  1.4km/h 7.0mph /  11.3km/h 19% 0.00in /  0mm 0.0 W/m2
20:07 68.2 °F /  20.1 °C 24.3 °F /  -4.3 °C 30.24in /  1023.9hPa SSE 4.9mph /  7.9km/h 10.0mph /  16.1km/h 19% 0.00in /  0mm 0.0 W/m2
20:13 68.0 °F /  20 °C 25.3 °F /  -3.7 °C 30.24in /  1023.9hPa Calm   7.0mph /  11.3km/h 20% 0.00in /  0mm 0.0 W/m2
20:19 67.8 °F /  19.9 °C 25.3 °F /  -3.7 °C 30.24in /  1023.9hPa South 0.9mph /  1.4km/h 2.0mph /  3.2km/h 20% 0.00in /  0mm 0.0 W/m2
20:25 67.5 °F /  19.7 °C 25.0 °F /  -3.9 °C 30.24in /  1023.9hPa SSE 2.9mph /  4.7km/h 6.0mph /  9.7km/h 20% 0.00in /  0mm 0.0 W/m2
20:31 67.3 °F /  19.6 °C 24.8 °F /  -4 °C 30.25in /  1024.3hPa Calm   2.0mph /  3.2km/h 20% 0.00in /  0mm 0.0 W/m2
20:37 66.9 °F /  19.4 °C 24.6 °F /  -4.1 °C 30.25in /  1024.3hPa SSE 2.0mph /  3.2km/h 2.0mph /  3.2km/h 20% 0.00in /  0mm 0.0 W/m2
20:43 66.7 °F /  19.3 °C 24.4 °F /  -4.2 °C 30.25in /  1024.3hPa SE 4.0mph /  6.4km/h 7.0mph /  11.3km/h 20% 0.00in /  0mm 0.0 W/m2
20:49 66.4 °F /  19.1 °C 25.3 °F /  -3.7 °C 30.25in /  1024.3hPa Calm   1.0mph /  1.6km/h 21% 0.00in /  0mm 0.0 W/m2
20:55 66.0 °F /  18.9 °C 25.0 °F /  -3.9 °C 30.25in /  1024.3hPa Calm     21% 0.00in /  0mm 0.0 W/m2
21:01 65.7 °F /  18.7 °C 24.6 °F /  -4.1 °C 30.25in /  1024.3hPa Calm   1.0mph /  1.6km/h 21% 0.00in /  0mm 0.0 W/m2
21:07 65.1 °F /  18.4 °C 25.3 °F /  -3.7 °C 30.25in /  1024.3hPa Calm     22% 0.00in /  0mm 0.0 W/m2
21:13 64.6 °F /  18.1 °C 24.8 °F /  -4 °C 30.25in /  1024.3hPa Calm     22% 0.00in /  0mm 0.0 W/m2
21:20 64.0 °F /  17.8 °C 25.5 °F /  -3.6 °C 30.26in /  1024.6hPa Calm   1.0mph /  1.6km/h 23% 0.00in /  0mm 0.0 W/m2
21:25 63.3 °F /  17.4 °C 24.8 °F /  -4 °C 30.26in /  1024.6hPa Calm     23% 0.00in /  0mm 0.0 W/m2
21:31 63.0 °F /  17.2 °C 24.6 °F /  -4.1 °C 30.26in /  1024.6hPa Calm     23% 0.00in /  0mm 0.0 W/m2
21:37 62.2 °F /  16.8 °C 25.0 °F /  -3.9 °C 30.26in /  1024.6hPa Calm     24% 0.00in /  0mm 0.0 W/m2
21:43 61.9 °F /  16.6 °C 24.6 °F /  -4.1 °C 30.26in /  1024.6hPa Calm     24% 0.00in /  0mm 0.0 W/m2
21:50 61.3 °F /  16.3 °C 25.2 °F /  -3.8 °C 30.26in /  1024.6hPa Calm   1.0mph /  1.6km/h 25% 0.00in /  0mm 0.0 W/m2
21:55 61.0 °F /  16.1 °C 25.0 °F /  -3.9 °C 30.26in /  1024.6hPa Calm     25% 0.00in /  0mm 0.0 W/m2
22:01 60.6 °F /  15.9 °C 24.6 °F /  -4.1 °C 30.26in /  1024.6hPa Calm   1.0mph /  1.6km/h 25% 0.00in /  0mm 0.0 W/m2
22:07 60.4 °F /  15.8 °C 25.3 °F /  -3.7 °C 30.26in /  1024.6hPa Calm     26% 0.00in /  0mm 0.0 W/m2
22:13 60.1 °F /  15.6 °C 25.2 °F /  -3.8 °C 30.26in /  1024.6hPa Calm   2.0mph /  3.2km/h 26% 0.00in /  0mm 0.0 W/m2
22:19 59.7 °F /  15.4 °C 24.8 °F /  -4 °C 30.26in /  1024.6hPa Calm     26% 0.00in /  0mm 0.0 W/m2
22:25 59.4 °F /  15.2 °C 24.4 °F /  -4.2 °C 30.26in /  1024.6hPa Calm     26% 0.00in /  0mm 0.0 W/m2
22:32 59.2 °F /  15.1 °C 24.3 °F /  -4.3 °C 30.26in /  1024.6hPa Calm   1.0mph /  1.6km/h 26% 0.00in /  0mm 0.0 W/m2
22:38 59.2 °F /  15.1 °C 24.3 °F /  -4.3 °C 30.26in /  1024.6hPa East 0.9mph /  1.4km/h 3.0mph /  4.8km/h 26% 0.00in /  0mm 0.0 W/m2
22:44 59.2 °F /  15.1 °C 24.3 °F /  -4.3 °C 30.26in /  1024.6hPa Calm     26% 0.00in /  0mm 0.0 W/m2
22:50 59.2 °F /  15.1 °C 24.3 °F /  -4.3 °C 30.25in /  1024.3hPa Calm   2.0mph /  3.2km/h 26% 0.00in /  0mm 0.0 W/m2
22:56 58.8 °F /  14.9 °C 24.1 °F /  -4.4 °C 30.25in /  1024.3hPa Calm   1.0mph /  1.6km/h 26% 0.00in /  0mm 0.0 W/m2
23:02 58.6 °F /  14.8 °C 24.8 °F /  -4 °C 30.25in /  1024.3hPa Calm     27% 0.00in /  0mm 0.0 W/m2
23:08 58.5 °F /  14.7 °C 24.6 °F /  -4.1 °C 30.25in /  1024.3hPa South 0.9mph /  1.4km/h 1.0mph /  1.6km/h 27% 0.00in /  0mm 0.0 W/m2
23:14 58.3 °F /  14.6 °C 24.4 °F /  -4.2 °C 30.25in /  1024.3hPa Calm     27% 0.00in /  0mm 0.0 W/m2
23:20 57.9 °F /  14.4 °C 24.1 °F /  -4.4 °C 30.26in /  1024.6hPa Calm   1.0mph /  1.6km/h 27% 0.00in /  0mm 0.0 W/m2
23:26 57.6 °F /  14.2 °C 24.6 °F /  -4.1 °C 30.26in /  1024.6hPa Calm     28% 0.00in /  0mm 0.0 W/m2
23:32 57.4 °F /  14.1 °C 24.6 °F /  -4.1 °C 30.26in /  1024.6hPa Calm   1.0mph /  1.6km/h 28% 0.00in /  0mm 0.0 W/m2
23:38 57.4 °F /  14.1 °C 24.6 °F /  -4.1 °C 30.26in /  1024.6hPa Calm     28% 0.00in /  0mm 0.0 W/m2
23:44 57.4 °F /  14.1 °C 23.7 °F /  -4.6 °C 30.26in /  1024.6hPa Calm   1.0mph /  1.6km/h 27% 0.00in /  0mm 0.0 W/m2
23:50 57.4 °F /  14.1 °C 23.7 °F /  -4.6 °C 30.26in /  1024.6hPa Calm     27% 0.00in /  0mm 0.0 W/m2
23:56 57.4 °F /  14.1 °C 23.7 °F /  -4.6 °C 30.26in /  1024.6hPa Calm     27% 0.00in /  0mm 0.0 W/m2
Olympia, Windhoek, Namibia
Compliments of Weather Underground - 3 mb